Time;durP1;ratioP1;P1;durP2;ratioP2;P2;SDS_P1;SDS_P2;PMS_P1;PMS_P2;Temp;Humidity;BMP_temperature;BMP_pressure;BME280_temperature;BME280_humidity;BME280_pressure;Samples;Min_cycle;Max_cycle;Signal;HPM_P1;HPM_P2
2022/02/22 00:01:28;;;;;;;7.60;3.90;;;;;;;5.55;78.19;98157.08;108302;1284;23126;-56
2022/02/22 00:03:56;;;;;;;6.40;3.90;;;;;;;5.52;78.11;98156.89;108321;1285;22467;-56
2022/02/22 00:06:25;;;;;;;13.20;6.80;;;;;;;5.48;78.16;98163.23;108206;1285;138860;-56
2022/02/22 00:08:53;;;;;;;17.60;7.80;;;;;;;5.40;78.49;98159.94;108274;1286;22422;-56
2022/02/22 00:11:25;;;;;;;14.10;7.20;;;;;;;5.41;78.02;98165.67;108206;1285;139792;-56
2022/02/22 00:13:53;;;;;;;9.10;5.10;;;;;;;5.38;78.11;98165.74;108330;1285;22499;-56
2022/02/22 00:16:21;;;;;;;8.30;5.10;;;;;;;5.35;78.05;98163.13;108305;1285;22520;-56
2022/02/22 00:18:49;;;;;;;6.90;3.70;;;;;;;5.33;78.32;98158.80;108210;1286;138130;-56
2022/02/22 00:21:17;;;;;;;5.40;3.90;;;;;;;5.30;78.45;98155.92;108261;1286;22453;-56
2022/02/22 00:23:46;;;;;;;6.20;3.20;;;;;;;5.28;78.42;98154.65;108167;1285;137726;-56
2022/02/22 00:26:14;;;;;;;7.10;4.10;;;;;;;5.26;78.89;98157.34;108179;1287;22565;-56
2022/02/22 00:28:42;;;;;;;8.50;5.50;;;;;;;5.25;78.48;98161.64;108126;1286;22472;-56
2022/02/22 00:31:10;;;;;;;11.20;7.00;;;;;;;5.21;78.68;98152.80;108047;1286;137737;-56
2022/02/22 00:33:38;;;;;;;15.30;9.20;;;;;;;5.20;78.70;98156.14;108336;1286;22555;-56
2022/02/22 00:36:06;;;;;;;15.50;9.50;;;;;;;5.16;78.93;98154.17;108195;1286;138328;-56
2022/02/22 00:38:35;;;;;;;16.70;7.50;;;;;;;5.13;78.35;98151.92;108292;1285;23353;-56
2022/02/22 00:41:03;;;;;;;11.70;6.60;;;;;;;5.08;78.88;98151.05;108216;1285;138726;-54
2022/02/22 00:47:14;;;;;;;7.70;4.90;;;;;;;4.96;78.76;98144.05;108202;1285;137923;-54
2022/02/22 00:49:42;;;;;;;10.90;5.60;;;;;;;4.91;79.18;98144.92;108330;1286;23452;-54
2022/02/22 00:52:10;;;;;;;9.50;5.00;;;;;;;4.87;79.07;98145.26;108236;1285;22482;-55
2022/02/22 00:54:38;;;;;;;8.40;5.20;;;;;;;4.86;79.42;98153.34;108235;1286;137865;-54
2022/02/22 00:57:11;;;;;;;15.30;6.80;;;;;;;4.83;79.56;98152.83;108335;1285;23099;-54
2022/02/22 00:59:39;;;;;;;15.20;8.20;;;;;;;4.81;79.75;98158.89;108186;1284;138871;-55
2022/02/22 01:02:07;;;;;;;13.00;7.30;;;;;;;4.79;79.82;98153.69;108273;1286;22556;-55
2022/02/22 01:32:12;;;;;;;12.00;5.70;;;;;;;4.71;80.78;98186.48;108206;1285;138761;-54
2022/02/22 01:34:40;;;;;;;9.30;5.30;;;;;;;4.72;80.81;98182.56;108152;1286;22492;-55
2022/02/22 01:37:08;;;;;;;11.60;5.60;;;;;;;4.73;81.05;98182.25;108218;1286;138329;-54
2022/02/22 01:39:53;;;;;;;7.90;4.40;;;;;;;4.75;80.59;98183.02;108256;1284;22509;-56
2022/02/22 01:42:21;;;;;;;8.80;5.00;;;;;;;4.75;80.44;98186.32;108180;1286;138124;-56
2022/02/22 01:44:49;;;;;;;16.80;7.50;;;;;;;4.75;80.42;98183.98;108302;1285;22275;-56
2022/02/22 01:47:17;;;;;;;20.30;9.20;;;;;;;4.79;80.44;98179.81;108254;1286;23147;-56
2022/02/22 01:49:45;;;;;;;21.70;11.70;;;;;;;4.80;80.65;98175.02;108217;1286;138644;-56
2022/02/22 01:52:13;;;;;;;24.90;12.30;;;;;;;4.79;80.51;98174.63;108316;1286;22460;-56
2022/02/22 01:54:41;;;;;;;23.70;11.50;;;;;;;4.81;80.40;98176.98;108174;1286;138789;-56
2022/02/22 01:57:10;;;;;;;19.50;9.90;;;;;;;4.81;80.30;98171.64;108300;1285;23287;-56
2022/02/22 01:59:40;;;;;;;16.70;8.70;;;;;;;4.82;80.58;98174.61;108150;1286;22481;-56
2022/02/22 02:02:12;;;;;;;14.60;7.70;;;;;;;4.79;80.31;98168.92;108211;1286;137882;-56
2022/02/22 02:04:41;;;;;;;15.50;8.00;;;;;;;4.79;80.48;98167.18;108313;1286;22528;-56
2022/02/22 02:07:17;;;;;;;19.60;9.50;;;;;;;4.78;80.31;98163.18;108239;1284;139388;-56
2022/02/22 02:09:45;;;;;;;16.50;8.10;;;;;;;4.76;80.42;98164.52;108286;1285;23811;-56
2022/02/22 02:12:15;;;;;;;20.30;9.50;;;;;;;4.74;80.49;98166.89;108176;1286;138549;-56
2022/02/22 02:14:43;;;;;;;17.70;8.90;;;;;;;4.73;80.87;98170.74;108305;1285;22403;-56
2022/02/22 02:17:11;;;;;;;17.10;9.00;;;;;;;4.72;81.10;98177.54;108307;1286;22322;-56
2022/02/22 02:19:40;;;;;;;14.70;8.40;;;;;;;4.72;81.16;98175.01;108045;1286;139341;-56
2022/02/22 02:22:09;;;;;;;17.20;8.10;;;;;;;4.73;80.81;98173.98;108297;1285;22276;-56
2022/02/22 02:24:37;;;;;;;20.00;8.60;;;;;;;4.73;80.87;98181.55;108044;1286;139097;-56
2022/02/22 02:27:05;;;;;;;19.00;10.20;;;;;;;4.74;81.20;98184.54;108323;1286;22470;-56
2022/02/22 02:29:32;;;;;;;22.00;11.90;;;;;;;4.76;81.18;98184.42;108294;1285;22551;-56
2022/02/22 02:32:00;;;;;;;22.70;12.90;;;;;;;4.77;81.15;98188.16;108214;1286;137516;-56
2022/02/22 02:34:28;;;;;;;22.50;13.40;;;;;;;4.79;81.47;98194.48;108288;1285;22478;-56
2022/02/22 02:36:56;;;;;;;20.60;13.00;;;;;;;4.79;81.74;98199.67;108096;1285;137584;-56
2022/02/22 02:39:24;;;;;;;21.40;12.50;;;;;;;4.79;81.41;98203.29;107700;1286;25299;-54
2022/02/22 02:41:52;;;;;;;17.60;10.90;;;;;;;4.78;81.64;98203.81;103724;1286;140035;-55
2022/02/22 02:44:21;;;;;;;16.10;10.40;;;;;;;4.77;81.42;98203.38;103888;1286;22736;-54
2022/02/22 02:46:49;;;;;;;16.90;10.50;;;;;;;4.75;81.23;98212.05;103878;1286;24440;-54
2022/02/22 02:49:18;;;;;;;18.40;9.80;;;;;;;4.74;82.03;98215.13;103745;1286;139278;-54
2022/02/22 02:51:46;;;;;;;17.20;10.10;;;;;;;4.74;81.59;98218.45;103771;1286;25327;-53
2022/02/22 02:56:55;;;;;;;15.70;10.60;;;;;;;4.76;82.05;98222.54;101806;1309;545169;-54
2022/02/22 02:59:24;;;;;;;17.90;11.80;;;;;;;4.74;82.22;98228.29;104211;1282;22715;-54
2022/02/22 03:01:51;;;;;;;17.40;11.20;;;;;;;4.74;82.20;98226.39;103906;1283;137527;-54
2022/02/22 03:04:19;;;;;;;18.30;10.50;;;;;;;4.72;81.98;98227.89;104022;1287;22766;-54
2022/02/22 03:06:47;;;;;;;15.30;10.40;;;;;;;4.71;82.30;98231.91;103920;1284;137616;-54
2022/02/22 03:09:15;;;;;;;18.80;10.60;;;;;;;4.70;82.34;98234.87;104407;1284;24274;-54
2022/02/22 03:11:43;;;;;;;18.80;10.80;;;;;;;4.69;82.21;98239.60;108794;1280;175676;-55
2022/02/22 03:14:11;;;;;;;16.50;9.70;;;;;;;4.67;82.50;98246.38;108887;1280;138492;-54
2022/02/22 03:21:26;;;;;;;13.80;9.10;;;;;;;4.69;82.55;98248.02;108951;1280;22443;-55
2022/02/22 03:23:55;;;;;;;15.50;8.90;;;;;;;4.69;82.49;98255.73;108947;1280;22456;-55
2022/02/22 03:26:23;;;;;;;14.50;9.20;;;;;;;4.70;82.59;98260.44;108624;1280;137595;-54
2022/02/22 03:28:51;;;;;;;17.10;10.10;;;;;;;4.69;82.53;98264.54;108994;1280;23197;-55
2022/02/22 03:31:19;;;;;;;14.70;10.10;;;;;;;4.70;82.52;98268.11;108856;1280;138038;-55
2022/02/22 03:33:52;;;;;;;17.40;11.40;;;;;;;4.70;82.55;98272.10;108978;1279;22443;-55
2022/02/22 03:36:20;;;;;;;17.70;10.90;;;;;;;4.69;82.62;98274.63;108866;1280;138851;-55
2022/02/22 03:38:48;;;;;;;15.20;9.40;;;;;;;4.67;82.80;98276.91;109002;1281;22459;-54
2022/02/22 03:41:16;;;;;;;16.00;9.50;;;;;;;4.66;82.51;98277.11;109038;1279;22431;-56
2022/02/22 03:43:44;;;;;;;15.30;8.70;;;;;;;4.65;82.46;98272.23;109480;1270;137999;-56
2022/02/22 03:46:12;;;;;;;13.20;7.70;;;;;;;4.63;82.72;98267.95;109634;1271;22421;-56
2022/02/22 03:48:40;;;;;;;11.60;8.10;;;;;;;4.63;82.48;98267.14;109456;1271;138112;-56
2022/02/22 03:51:08;;;;;;;11.80;7.60;;;;;;;4.62;82.60;98270.09;109592;1271;22493;-56
2022/02/22 03:53:36;;;;;;;12.20;7.30;;;;;;;4.62;82.82;98272.96;109602;1271;22492;-56
2022/02/22 03:56:04;;;;;;;9.90;7.00;;;;;;;4.63;82.71;98275.39;109505;1271;139364;-56
2022/02/22 04:02:50;;;;;;;13.30;7.80;;;;;;;4.67;82.73;98281.77;109455;1271;138154;-56
2022/02/22 04:05:20;;;;;;;12.00;7.70;;;;;;;4.68;82.51;98286.85;109512;1272;22462;-56
2022/02/22 04:07:49;;;;;;;15.40;8.00;;;;;;;4.69;82.79;98289.73;109504;1271;138610;-56
2022/02/22 04:10:17;;;;;;;17.10;8.40;;;;;;;4.68;82.67;98291.82;109613;1271;22504;-55
2022/02/22 04:12:47;;;;;;;14.10;9.20;;;;;;;4.68;82.58;98296.23;109499;1271;138773;-56
2022/02/22 04:15:15;;;;;;;17.10;9.90;;;;;;;4.67;82.31;98297.25;109590;1271;23730;-56
2022/02/22 04:17:43;;;;;;;15.70;9.10;;;;;;;4.67;82.27;98300.54;109602;1271;22427;-56
2022/02/22 04:20:11;;;;;;;17.30;9.20;;;;;;;4.65;82.48;98295.39;109474;1271;136906;-56
2022/02/22 04:22:40;;;;;;;14.30;7.90;;;;;;;4.65;82.43;98286.48;109574;1271;22447;-56
2022/02/22 04:25:08;;;;;;;13.90;7.60;;;;;;;4.64;82.01;98285.50;109481;1271;137632;-56
2022/02/22 04:27:38;;;;;;;14.00;8.20;;;;;;;4.61;82.06;98287.69;109592;1271;22428;-56
2022/02/22 04:30:14;;;;;;;12.60;7.40;;;;;;;4.60;82.26;98287.83;109566;1271;22981;-56
2022/02/22 04:32:43;;;;;;;11.70;7.50;;;;;;;4.56;82.42;98287.25;109484;1271;138450;-56
2022/02/22 04:35:11;;;;;;;14.40;8.80;;;;;;;4.54;81.87;98290.89;109645;1271;22431;-56
2022/02/22 04:37:41;;;;;;;15.20;9.20;;;;;;;4.55;81.87;98299.90;109474;1271;139624;-56
2022/02/22 04:40:09;;;;;;;13.00;9.00;;;;;;;4.54;81.88;98305.98;109557;1271;22449;-54
2022/02/22 04:42:41;;;;;;;14.70;8.90;;;;;;;4.52;81.90;98308.39;109437;1271;139476;-55
2022/02/22 04:45:09;;;;;;;11.30;7.70;;;;;;;4.51;81.97;98309.75;109610;1271;22498;-55
2022/02/22 04:47:38;;;;;;;14.50;8.70;;;;;;;4.48;81.90;98308.75;109572;1271;22397;-54
2022/02/22 04:50:06;;;;;;;14.90;8.40;;;;;;;4.47;82.01;98312.90;109455;1271;137133;-54
2022/02/22 04:52:34;;;;;;;13.80;8.20;;;;;;;4.46;81.81;98313.64;109599;1271;22429;-55
2022/02/22 04:55:06;;;;;;;12.20;8.60;;;;;;;4.45;82.34;98315.42;109474;1271;139093;-54
2022/02/22 04:57:37;;;;;;;15.40;9.10;;;;;;;4.45;81.98;98312.83;109580;1271;23267;-54
2022/02/22 05:00:07;;;;;;;19.30;11.10;;;;;;;4.43;81.81;98307.89;109569;1271;22466;-54
2022/02/22 05:02:35;;;;;;;19.60;11.40;;;;;;;4.44;81.78;98316.96;109410;1271;139282;-54
2022/02/22 05:05:04;;;;;;;14.40;9.60;;;;;;;4.44;81.70;98329.47;109595;1271;22452;-54
2022/02/22 05:07:33;;;;;;;13.30;7.50;;;;;;;4.44;81.81;98338.00;109461;1271;138607;-54
2022/02/22 05:10:01;;;;;;;11.50;7.30;;;;;;;4.45;81.97;98339.64;109591;1271;22438;-54
2022/02/22 05:12:37;;;;;;;12.20;7.80;;;;;;;4.46;81.91;98342.02;109461;1271;137531;-55
2022/02/22 05:15:06;;;;;;;13.00;8.20;;;;;;;4.48;81.81;98343.37;109558;1269;22467;-54
2022/02/22 05:17:34;;;;;;;13.80;8.60;;;;;;;4.47;81.73;98346.34;109553;1271;22465;-55
2022/02/22 05:20:06;;;;;;;14.30;8.70;;;;;;;4.46;81.58;98346.30;109467;1271;137004;-54
2022/02/22 05:22:41;;;;;;;13.70;8.20;;;;;;;4.44;81.67;98347.76;109565;1271;23452;-55
2022/02/22 05:25:10;;;;;;;14.20;9.20;;;;;;;4.44;81.34;98353.31;109457;1271;137952;-55
2022/02/22 05:27:38;;;;;;;15.10;9.30;;;;;;;4.42;81.22;98354.52;109588;1271;23303;-55
2022/02/22 05:30:07;;;;;;;14.10;9.80;;;;;;;4.40;80.99;98354.27;109497;1271;23048;-55
2022/02/22 05:32:35;;;;;;;15.00;9.10;;;;;;;4.38;81.15;98357.36;109474;1271;138244;-54
2022/02/22 05:35:04;;;;;;;13.30;8.30;;;;;;;4.36;80.92;98358.94;109593;1271;23171;-54
2022/02/22 05:37:32;;;;;;;13.80;8.70;;;;;;;4.33;81.06;98360.84;109498;1271;137755;-54
2022/02/22 05:40:07;;;;;;;13.60;9.80;;;;;;;4.36;80.96;98372.30;109620;1271;22423;-56
2022/02/22 05:42:37;;;;;;;16.90;10.10;;;;;;;4.37;81.27;98374.93;109512;1271;138221;-56
2022/02/22 05:45:05;;;;;;;20.60;11.40;;;;;;;4.38;81.18;98379.97;109633;1271;23273;-56
2022/02/22 05:47:34;;;;;;;24.20;13.60;;;;;;;4.40;81.14;98378.27;109586;1271;22258;-56
2022/02/22 05:50:02;;;;;;;28.30;15.40;;;;;;;4.41;81.51;98375.92;109495;1271;138561;-56
2022/02/22 05:52:31;;;;;;;27.00;16.40;;;;;;;4.43;81.27;98380.91;109621;1271;22501;-56
2022/02/22 05:54:59;;;;;;;28.10;15.00;;;;;;;4.46;81.44;98393.10;109523;1271;138498;-56
2022/02/22 05:57:26;;;;;;;27.30;16.80;;;;;;;4.46;81.45;98396.43;109623;1271;23573;-56
2022/02/22 05:59:54;;;;;;;24.60;15.40;;;;;;;4.47;81.37;98402.00;109576;1271;23266;-56
2022/02/22 06:02:22;;;;;;;26.60;14.80;;;;;;;4.50;81.48;98412.52;109509;1271;138382;-56
2022/02/22 06:04:50;;;;;;;24.70;12.90;;;;;;;4.51;81.11;98412.20;109602;1270;23022;-56
2022/02/22 06:07:20;;;;;;;21.80;12.80;;;;;;;4.50;81.19;98412.61;109515;1271;138335;-56
2022/02/22 06:09:48;;;;;;;19.30;11.70;;;;;;;4.51;81.05;98414.58;109628;1271;22505;-56
2022/02/22 06:12:35;;;;;;;18.10;11.50;;;;;;;4.53;81.22;98427.29;109551;1270;139445;-56
2022/02/22 06:15:05;;;;;;;18.80;10.90;;;;;;;4.55;81.17;98431.70;109618;1271;23112;-56
2022/02/22 06:17:47;;;;;;;14.50;10.10;;;;;;;4.57;81.25;98430.33;109561;1271;22463;-56
2022/02/22 06:20:15;;;;;;;19.30;11.20;;;;;;;4.59;81.00;98427.83;109530;1271;138014;-56
2022/02/22 06:22:45;;;;;;;19.80;9.10;;;;;;;4.59;80.59;98428.30;109662;1271;22463;-56
2022/02/22 06:25:13;;;;;;;17.60;9.80;;;;;;;4.64;80.96;98431.71;109517;1271;138819;-56
2022/02/22 06:27:59;;;;;;;17.90;10.30;;;;;;;4.66;80.53;98435.68;109640;1271;22442;-56
2022/02/22 06:30:27;;;;;;;14.30;10.20;;;;;;;4.68;80.59;98441.70;109507;1271;138615;-57
2022/02/22 06:32:55;;;;;;;18.30;10.30;;;;;;;4.70;80.57;98440.50;109601;1270;22459;-56
2022/02/22 06:35:25;;;;;;;14.90;9.80;;;;;;;4.71;80.40;98443.21;109552;1271;22449;-56
2022/02/22 06:37:53;;;;;;;16.30;10.20;;;;;;;4.71;80.06;98441.34;109510;1271;137140;-56
2022/02/22 06:40:21;;;;;;;24.30;12.30;;;;;;;4.70;80.00;98440.40;109620;1269;22410;-56
2022/02/22 06:42:52;;;;;;;24.60;14.20;;;;;;;4.74;79.91;98445.97;109456;1271;139080;-56
2022/02/22 06:45:20;;;;;;;23.60;13.70;;;;;;;4.75;79.99;98449.60;109628;1271;22588;-56
2022/02/22 06:47:48;;;;;;;23.30;13.40;;;;;;;4.77;79.75;98453.06;109652;1270;23145;-56
2022/02/22 06:50:16;;;;;;;22.20;12.20;;;;;;;4.78;79.63;98451.14;109474;1271;139343;-56
2022/02/22 06:52:44;;;;;;;20.80;12.70;;;;;;;4.80;79.62;98449.23;109631;1270;22472;-56
2022/02/22 06:55:12;;;;;;;17.80;11.70;;;;;;;4.83;79.33;98451.02;109502;1271;138024;-56
2022/02/22 06:57:41;;;;;;;19.10;11.40;;;;;;;4.87;79.29;98455.00;109643;1269;22427;-56
2022/02/22 07:00:10;;;;;;;20.10;13.20;;;;;;;4.91;79.44;98453.23;109541;1271;23151;-56
2022/02/22 07:02:38;;;;;;;18.90;11.90;;;;;;;4.96;79.32;98448.17;109506;1270;138276;-56
2022/02/22 07:05:08;;;;;;;18.70;10.30;;;;;;;5.01;79.39;98449.94;109642;1271;22433;-56
2022/02/22 07:07:42;;;;;;;21.60;11.80;;;;;;;5.07;79.13;98448.48;109455;1273;137537;-55
2022/02/22 07:10:09;;;;;;;18.20;10.60;;;;;;;5.11;78.62;98449.84;109619;1271;22551;-56
2022/02/22 07:12:37;;;;;;;16.00;9.80;;;;;;;5.15;78.63;98454.02;109525;1271;139182;-56
2022/02/22 07:15:05;;;;;;;17.20;9.70;;;;;;;5.20;78.29;98461.36;109634;1271;22390;-56
2022/02/22 07:17:58;;;;;;;17.40;10.40;;;;;;;5.25;77.83;98460.04;109619;1271;22425;-56
2022/02/22 07:20:26;;;;;;;16.30;9.50;;;;;;;5.28;77.10;98457.70;109540;1271;138701;-56
2022/02/22 07:22:57;;;;;;;17.30;9.10;;;;;;;5.36;76.74;98468.05;109621;1271;22250;-56
2022/02/22 07:25:26;;;;;;;29.70;13.70;;;;;;;5.41;76.42;98466.39;109528;1271;139282;-56
2022/02/22 07:27:55;;;;;;;21.70;12.20;;;;;;;5.46;75.94;98470.91;109614;1271;22554;-56
2022/02/22 07:30:23;;;;;;;23.60;12.80;;;;;;;5.51;75.67;98473.81;109568;1271;22481;-56
2022/02/22 07:32:54;;;;;;;34.20;18.70;;;;;;;5.56;75.65;98475.56;109525;1271;139434;-56
2022/02/22 07:35:23;;;;;;;32.20;18.10;;;;;;;5.61;74.95;98478.11;109531;1271;22628;-55
2022/02/22 07:37:52;;;;;;;24.20;13.30;;;;;;;5.66;74.84;98477.35;109506;1271;137245;-55
2022/02/22 07:40:20;;;;;;;19.00;11.60;;;;;;;5.68;74.50;98469.72;109647;1271;23289;-54
2022/02/22 07:42:54;;;;;;;15.80;9.50;;;;;;;5.75;74.67;98472.94;109486;1271;138378;-54
2022/02/22 07:45:22;;;;;;;18.60;9.20;;;;;;;5.79;74.20;98476.75;109624;1271;23573;-54
2022/02/22 07:47:50;;;;;;;17.80;7.80;;;;;;;5.84;73.76;98477.63;109615;1271;22468;-54
2022/02/22 07:50:18;;;;;;;16.50;7.40;;;;;;;5.87;72.35;98475.45;109518;1271;138147;-54
2022/02/22 07:52:46;;;;;;;20.50;9.00;;;;;;;5.89;71.82;98476.38;109635;1271;23551;-54
2022/02/22 07:55:14;;;;;;;13.60;6.80;;;;;;;5.92;71.63;98477.20;109493;1270;137803;-54
2022/02/22 07:57:42;;;;;;;13.00;7.20;;;;;;;5.94;70.71;98477.06;109669;1271;22526;-54
2022/02/22 08:00:14;;;;;;;15.30;8.20;;;;;;;5.98;70.45;98482.85;109646;1270;23175;-54
2022/02/22 08:02:48;;;;;;;11.10;7.00;;;;;;;6.02;69.73;98479.98;109494;1271;137217;-54
2022/02/22 08:05:16;;;;;;;16.40;8.30;;;;;;;6.08;69.74;98480.13;109646;1269;22435;-54
2022/02/22 08:07:44;;;;;;;15.10;8.50;;;;;;;6.14;69.59;98479.40;109556;1271;137722;-54
2022/02/22 08:10:12;;;;;;;12.20;6.40;;;;;;;6.18;68.53;98476.84;109637;1271;22247;-54
2022/02/22 08:12:40;;;;;;;14.00;6.80;;;;;;;6.23;67.11;98476.50;109497;1271;138160;-54
2022/02/22 08:15:08;;;;;;;11.00;6.40;;;;;;;6.26;66.43;98473.99;109668;1271;22412;-54
2022/02/22 08:17:40;;;;;;;10.10;6.00;;;;;;;6.29;66.06;98471.16;109620;1270;23302;-54
2022/02/22 08:20:09;;;;;;;8.80;4.70;;;;;;;6.32;65.29;98465.52;109559;1271;140983;-54
2022/02/22 08:22:37;;;;;;;10.50;5.40;;;;;;;6.38;64.54;98465.66;109665;1270;22657;-54
2022/02/22 08:25:06;;;;;;;9.40;5.80;;;;;;;6.43;63.72;98464.04;109656;1270;22402;-54
2022/02/22 08:27:35;;;;;;;8.40;4.70;;;;;;;6.50;63.36;98467.67;109528;1271;138300;-54
2022/02/22 08:30:04;;;;;;;7.30;4.00;;;;;;;6.55;63.55;98466.86;109662;1270;23032;-54
2022/02/22 08:32:32;;;;;;;12.40;4.80;;;;;;;6.61;62.84;98469.67;109463;1271;137184;-54
2022/02/22 08:35:01;;;;;;;6.80;3.40;;;;;;;6.67;62.79;98471.77;109621;1270;23008;-54
2022/02/22 08:37:29;;;;;;;6.80;4.10;;;;;;;6.72;62.22;98474.36;109663;1270;22474;-54
2022/02/22 08:39:58;;;;;;;11.50;4.30;;;;;;;6.75;62.42;98477.08;107989;1271;136957;-55
2022/02/22 08:42:26;;;;;;;8.50;4.70;;;;;;;6.83;62.31;98477.58;105064;1271;25311;-54
2022/02/22 08:45:14;;;;;;;7.40;3.30;;;;;;;6.88;61.48;98477.67;105013;1271;136786;-55
2022/02/22 08:47:42;;;;;;;5.60;2.90;;;;;;;6.91;60.79;98475.04;105143;1271;24012;-55
2022/02/22 08:50:11;;;;;;;6.40;3.60;;;;;;;6.98;60.36;98481.91;109507;1269;138219;-55
2022/02/22 08:52:39;;;;;;;5.70;2.90;;;;;;;7.02;59.73;98480.92;109626;1271;23562;-55
2022/02/22 08:55:08;;;;;;;5.80;2.90;;;;;;;7.07;59.16;98481.59;109460;1271;22545;-55
2022/02/22 08:57:36;;;;;;;4.80;2.60;;;;;;;7.11;58.45;98482.11;109536;1271;137379;-55
2022/02/22 09:00:09;;;;;;;8.10;3.00;;;;;;;7.16;58.14;98485.29;109662;1270;22448;-55
2022/02/22 09:02:38;;;;;;;7.40;3.30;;;;;;;7.20;57.15;98485.91;109547;1271;140153;-55
2022/02/22 09:05:08;;;;;;;5.80;3.00;;;;;;;7.23;56.96;98491.39;109679;1271;23468;-56
2022/02/22 09:07:43;;;;;;;4.10;2.10;;;;;;;7.29;56.49;98491.22;109663;1271;22376;-55
2022/02/22 09:10:13;;;;;;;10.00;2.00;;;;;;;7.33;55.39;98496.23;109533;1271;136516;-55
2022/02/22 09:12:46;;;;;;;4.70;2.10;;;;;;;7.37;54.67;98488.55;109618;1270;22454;-56
2022/02/22 09:15:15;;;;;;;7.10;2.70;;;;;;;7.42;54.32;98490.27;109570;1271;138090;-56
2022/02/22 09:17:44;;;;;;;6.40;2.20;;;;;;;7.47;53.35;98491.33;109660;1271;22874;-56
2022/02/22 09:20:14;;;;;;;7.30;2.50;;;;;;;7.49;53.13;98491.08;109521;1270;138609;-55
2022/02/22 09:22:42;;;;;;;4.20;2.10;;;;;;;7.52;53.14;98491.82;109628;1271;22425;-55
2022/02/22 09:25:11;;;;;;;5.70;2.50;;;;;;;7.56;52.95;98493.42;109675;1271;23250;-55
2022/02/22 09:27:40;;;;;;;8.10;2.40;;;;;;;7.61;52.84;98494.54;109534;1269;138136;-55
2022/02/22 09:30:09;;;;;;;5.30;2.20;;;;;;;7.65;52.79;98492.28;109657;1270;23240;-56
2022/02/22 09:32:37;;;;;;;5.50;2.80;;;;;;;7.70;52.67;98495.77;109520;1271;138139;-56
2022/02/22 09:35:05;;;;;;;8.70;3.50;;;;;;;7.74;52.38;98494.55;109649;1270;22222;-56
2022/02/22 09:37:34;;;;;;;5.40;2.90;;;;;;;7.76;52.11;98495.54;109649;1269;23140;-55
2022/02/22 09:40:02;;;;;;;6.50;2.40;;;;;;;7.78;51.56;98495.33;109555;1269;138626;-58
2022/02/22 09:42:32;;;;;;;4.70;2.80;;;;;;;7.78;51.39;98493.16;109643;1270;23250;-59
2022/02/22 09:45:00;;;;;;;7.90;3.30;;;;;;;7.79;51.57;98492.67;109343;1271;137179;-58
2022/02/22 09:47:28;;;;;;;7.10;2.70;;;;;;;7.79;51.17;98492.23;109639;1269;22439;-59
2022/02/22 09:49:57;;;;;;;7.30;2.90;;;;;;;7.80;51.88;98488.81;109478;1271;138477;-59
2022/02/22 09:52:25;;;;;;;6.00;2.40;;;;;;;7.84;52.00;98489.10;109652;1271;22454;-59
2022/02/22 09:54:53;;;;;;;4.50;2.10;;;;;;;7.89;52.09;98482.84;109639;1269;22476;-59
2022/02/22 09:57:21;;;;;;;5.30;2.70;;;;;;;7.94;51.99;98485.61;109565;1270;138759;-59
2022/02/22 09:59:49;;;;;;;4.70;2.40;;;;;;;7.99;51.23;98481.02;109678;1271;22431;-58
2022/02/22 10:02:18;;;;;;;4.70;2.20;;;;;;;8.03;51.30;98480.49;109532;1270;137529;-59
2022/02/22 10:04:47;;;;;;;6.60;2.20;;;;;;;8.09;50.84;98478.39;109641;1269;23067;-58
2022/02/22 10:07:18;;;;;;;6.90;3.30;;;;;;;8.11;49.34;98481.38;109676;1271;23407;-59
2022/02/22 10:09:55;;;;;;;7.00;3.00;;;;;;;8.11;49.52;98469.38;109504;1270;138171;-58
2022/02/22 10:12:30;;;;;;;;;;;;;;;8.10;49.53;98463.52;109665;1271;22592;-58
2022/02/22 10:14:58;;;;;;;6.10;2.50;;;;;;;8.11;49.38;98468.52;109565;1271;124418;-59
2022/02/22 10:17:27;;;;;;;4.20;2.10;;;;;;;8.10;49.77;98471.88;109662;1271;22434;-59
2022/02/22 10:20:02;;;;;;;4.60;2.20;;;;;;;8.12;49.56;98472.91;109560;1271;22248;-58
2022/02/22 10:22:32;;;;;;;4.70;2.40;;;;;;;8.14;49.29;98476.02;109393;1274;22445;-58
2022/02/22 10:25:09;;;;;;;4.60;2.30;;;;;;;8.16;49.34;98469.84;109404;1273;22487;-59
2022/02/22 10:27:45;;;;;;;;;;;;;;;8.21;48.95;98470.19;109454;1270;139214;-59
2022/02/22 10:30:43;;;;;;;5.20;1.90;;;;;;;8.25;49.48;98474.63;109646;1271;24538;-59
2022/02/22 10:33:18;;;;;;;;;;;;;;;8.31;49.24;98474.39;109511;1271;137639;-59
2022/02/22 10:36:07;;;;;;;4.20;1.90;;;;;;;8.35;48.75;98471.53;109660;1270;22506;-59
2022/02/22 10:38:36;;;;;;;5.60;1.90;;;;;;;8.38;48.55;98478.96;109559;1271;137923;-59
2022/02/22 10:41:14;;;;;;;4.50;2.30;;;;;;;8.41;48.55;98475.94;105961;1271;22553;-57
2022/02/22 10:43:50;;;;;;;4.50;2.20;;;;;;;8.45;48.58;98475.19;109641;1271;22710;-58
2022/02/22 10:46:24;;;;;;;4.70;2.50;;;;;;;8.50;48.37;98467.06;109505;1271;137143;-58
2022/02/22 10:49:03;;;;;;;8.80;2.60;;;;;;;8.56;47.54;98470.58;109690;1271;22401;-58
2022/02/22 10:51:38;;;;;;;5.40;2.50;;;;;;;8.58;47.02;98471.77;109520;1270;137128;-58
2022/02/22 10:54:08;;;;;;;4.90;2.10;;;;;;;8.55;47.08;98474.70;109670;1271;23250;-59
2022/02/22 10:56:39;;;;;;;4.90;2.00;;;;;;;8.55;47.01;98477.35;109557;1271;137164;-59
2022/02/22 10:59:08;;;;;;;4.40;1.90;;;;;;;8.55;47.40;98482.84;109658;1271;22503;-59
2022/02/22 11:01:37;;;;;;;5.40;2.20;;;;;;;8.58;47.43;98479.43;109642;1271;22466;-59
2022/02/22 11:04:08;;;;;;;5.90;2.10;;;;;;;8.61;47.70;98472.81;109463;1271;138553;-59
2022/02/22 11:06:38;;;;;;;5.10;2.10;;;;;;;8.65;47.53;98472.96;109647;1271;22547;-59
2022/02/22 11:09:06;;;;;;;7.10;3.20;;;;;;;8.68;47.43;98469.54;109532;1270;137977;-58
2022/02/22 11:12:02;;;;;;;9.10;2.40;;;;;;;8.69;47.16;98473.52;109642;1271;22445;-59
2022/02/22 11:14:37;;;;;;;4.40;2.60;;;;;;;8.69;47.12;98469.39;109364;1271;137865;-59
2022/02/22 11:17:19;;;;;;;6.40;2.50;;;;;;;8.70;47.22;98470.09;109681;1271;22415;-59
2022/02/22 11:19:50;;;;;;;6.80;2.60;;;;;;;8.74;47.60;98472.33;109685;1269;22429;-58
2022/02/22 11:22:24;;;;;;;7.80;3.10;;;;;;;8.76;47.52;98469.23;109402;1271;137513;-58
2022/02/22 11:24:58;;;;;;;8.70;3.60;;;;;;;8.77;47.55;98471.46;109670;1271;22591;-59
2022/02/22 11:27:31;;;;;;;6.80;3.00;;;;;;;8.80;46.65;98469.23;109549;1271;138109;-59
2022/02/22 11:30:09;;;;;;;5.20;3.20;;;;;;;8.81;46.81;98472.48;109658;1271;22742;-59
2022/02/22 11:32:58;;;;;;;10.10;3.80;;;;;;;8.82;46.61;98476.11;109444;1271;139463;-58
2022/02/22 11:35:28;;;;;;;11.80;4.50;;;;;;;8.79;46.42;98475.14;109638;1269;22257;-58
2022/02/22 11:38:08;;;;;;;7.90;3.70;;;;;;;8.80;46.59;98475.52;109664;1269;22502;-59
2022/02/22 11:40:40;;;;;;;7.10;3.50;;;;;;;8.78;46.45;98478.04;106618;1271;137453;-59
2022/02/22 11:43:19;;;;;;;11.00;4.40;;;;;;;8.78;46.19;98474.89;109568;1270;23304;-59
2022/02/22 11:45:48;;;;;;;39.80;12.00;;;;;;;8.76;45.90;98471.78;109554;1271;139130;-59
2022/02/22 11:48:17;;;;;;;8.70;3.90;;;;;;;8.74;46.39;98472.11;109684;1271;22273;-59
2022/02/22 11:50:49;;;;;;;8.40;3.30;;;;;;;8.74;46.77;98473.90;109560;1270;138624;-59
2022/02/22 11:53:22;;;;;;;7.30;3.40;;;;;;;8.75;46.63;98472.55;109646;1271;23178;-59
2022/02/22 11:55:50;;;;;;;27.80;8.00;;;;;;;8.78;46.66;98470.65;109678;1271;23309;-59
2022/02/22 11:58:22;;;;;;;16.10;4.50;;;;;;;8.79;46.47;98473.31;109539;1270;138239;-59
2022/02/22 12:00:56;;;;;;;13.70;8.10;;;;;;;8.78;46.55;98470.81;109642;1271;22433;-59
2022/02/22 12:03:24;;;;;;;20.60;9.90;;;;;;;8.78;46.82;98471.20;109486;1271;137852;-59
2022/02/22 12:06:00;;;;;;;35.50;6.30;;;;;;;8.78;46.69;98473.26;109618;1271;23556;-59
2022/02/22 12:08:34;;;;;;;12.90;6.30;;;;;;;8.79;46.64;98474.40;109490;1269;138503;-58
2022/02/22 12:11:02;;;;;;;9.30;4.40;;;;;;;8.79;46.95;98471.69;109660;1270;23212;-58
2022/02/22 12:13:43;;;;;;;7.60;3.30;;;;;;;8.79;46.64;98469.84;109672;1271;22415;-58
2022/02/22 12:16:21;;;;;;;10.90;3.80;;;;;;;8.78;46.59;98473.15;109577;1271;138974;-59
2022/02/22 12:18:51;;;;;;;8.00;4.20;;;;;;;8.77;46.88;98477.44;109664;1270;22440;-59
2022/02/22 12:21:20;;;;;;;10.20;4.90;;;;;;;8.77;47.09;98472.66;109539;1269;139201;-59